sensor_id;sensor_type;location;lat;lon;timestamp;pressure;altitude;pressure_sealevel;temperature;humidity
30819;BME280;17546;42.674;23.284;2024-02-16T00:00:08;95286.41;;;11.08;39.04
30819;BME280;17546;42.674;23.284;2024-02-16T00:02:33;95295.84;;;11.16;38.70
30819;BME280;17546;42.674;23.284;2024-02-16T00:04:59;95283.78;;;10.99;39.04
30819;BME280;17546;42.674;23.284;2024-02-16T00:07:25;95297.72;;;11.04;39.32
30819;BME280;17546;42.674;23.284;2024-02-16T00:09:50;95300.75;;;11.06;39.17
30819;BME280;17546;42.674;23.284;2024-02-16T00:12:16;95303.88;;;10.93;39.54
30819;BME280;17546;42.674;23.284;2024-02-16T00:14:42;95306.09;;;11.10;39.22
30819;BME280;17546;42.674;23.284;2024-02-16T00:17:07;95281.84;;;10.84;39.62
30819;BME280;17546;42.674;23.284;2024-02-16T00:19:35;95299.25;;;11.05;39.21
30819;BME280;17546;42.674;23.284;2024-02-16T00:22:01;95276.50;;;10.60;39.74
30819;BME280;17546;42.674;23.284;2024-02-16T00:24:26;95297.91;;;10.80;39.89
30819;BME280;17546;42.674;23.284;2024-02-16T00:26:52;95264.25;;;10.67;39.53
30819;BME280;17546;42.674;23.284;2024-02-16T00:29:17;95275.75;;;10.60;39.99
30819;BME280;17546;42.674;23.284;2024-02-16T00:31:44;95285.88;;;10.63;40.16
30819;BME280;17546;42.674;23.284;2024-02-16T00:34:10;95293.91;;;10.61;40.04
30819;BME280;17546;42.674;23.284;2024-02-16T00:36:35;95264.53;;;10.48;39.72
30819;BME280;17546;42.674;23.284;2024-02-16T00:39:01;95279.22;;;10.54;39.87
30819;BME280;17546;42.674;23.284;2024-02-16T00:41:29;95308.81;;;10.63;40.22
30819;BME280;17546;42.674;23.284;2024-02-16T00:43:54;95306.78;;;10.43;40.42
30819;BME280;17546;42.674;23.284;2024-02-16T00:46:21;95310.09;;;10.47;40.43
30819;BME280;17546;42.674;23.284;2024-02-16T00:48:49;95281.22;;;10.19;40.67
30819;BME280;17546;42.674;23.284;2024-02-16T00:51:14;95288.84;;;10.24;40.69
30819;BME280;17546;42.674;23.284;2024-02-16T00:53:40;95299.69;;;10.42;40.37
30819;BME280;17546;42.674;23.284;2024-02-16T00:56:06;95301.06;;;10.32;40.78
30819;BME280;17546;42.674;23.284;2024-02-16T00:58:32;95306.09;;;10.33;40.71
30819;BME280;17546;42.674;23.284;2024-02-16T01:00:58;95310.75;;;10.42;40.74
30819;BME280;17546;42.674;23.284;2024-02-16T01:03:24;95299.16;;;10.23;40.88
30819;BME280;17546;42.674;23.284;2024-02-16T01:05:53;95287.72;;;10.01;41.21
30819;BME280;17546;42.674;23.284;2024-02-16T01:08:18;95303.16;;;10.07;41.29
30819;BME280;17546;42.674;23.284;2024-02-16T01:10:44;95286.31;;;10.05;41.28
30819;BME280;17546;42.674;23.284;2024-02-16T01:13:09;95305.06;;;10.16;41.62
30819;BME280;17546;42.674;23.284;2024-02-16T01:15:35;95295.16;;;10.09;41.42
30819;BME280;17546;42.674;23.284;2024-02-16T01:18:03;95303.09;;;10.17;41.41
30819;BME280;17546;42.674;23.284;2024-02-16T01:20:29;95283.84;;;9.33;42.46
30819;BME280;17546;42.674;23.284;2024-02-16T01:22:56;95275.16;;;9.85;41.71
30819;BME280;17546;42.674;23.284;2024-02-16T01:25:22;95276.59;;;9.80;41.54
30819;BME280;17546;42.674;23.284;2024-02-16T01:27:48;95266.84;;;9.85;41.55
30819;BME280;17546;42.674;23.284;2024-02-16T01:30:13;95296.13;;;10.06;41.52
30819;BME280;17546;42.674;23.284;2024-02-16T01:32:40;95278.88;;;9.97;41.53
30819;BME280;17546;42.674;23.284;2024-02-16T01:35:06;95286.94;;;10.15;41.30
30819;BME280;17546;42.674;23.284;2024-02-16T01:37:32;95261.31;;;9.85;41.63
30819;BME280;17546;42.674;23.284;2024-02-16T01:39:57;95289.59;;;10.24;41.31
30819;BME280;17546;42.674;23.284;2024-02-16T01:42:24;95263.75;;;10.12;40.90
30819;BME280;17546;42.674;23.284;2024-02-16T01:44:49;95261.75;;;10.13;41.23
30819;BME280;17546;42.674;23.284;2024-02-16T01:47:15;95276.03;;;10.41;40.94
30819;BME280;17546;42.674;23.284;2024-02-16T01:49:41;95272.63;;;10.17;40.93
30819;BME280;17546;42.674;23.284;2024-02-16T01:52:07;95264.31;;;10.17;40.89
30819;BME280;17546;42.674;23.284;2024-02-16T01:54:32;95270.59;;;10.32;41.05
30819;BME280;17546;42.674;23.284;2024-02-16T01:56:59;95246.28;;;10.06;41.13
30819;BME280;17546;42.674;23.284;2024-02-16T01:59:25;95278.63;;;10.30;41.12
30819;BME280;17546;42.674;23.284;2024-02-16T02:01:51;95234.25;;;10.09;40.93
30819;BME280;17546;42.674;23.284;2024-02-16T02:04:17;95255.69;;;10.29;40.79
30819;BME280;17546;42.674;23.284;2024-02-16T02:06:42;95260.56;;;10.34;40.84
30819;BME280;17546;42.674;23.284;2024-02-16T02:09:08;95272.41;;;10.35;40.41
30819;BME280;17546;42.674;23.284;2024-02-16T02:11:34;95256.00;;;10.17;40.81
30819;BME280;17546;42.674;23.284;2024-02-16T02:14:00;95243.34;;;10.10;40.82
30819;BME280;17546;42.674;23.284;2024-02-16T02:16:25;95276.03;;;10.41;40.45
30819;BME280;17546;42.674;23.284;2024-02-16T02:18:52;95252.16;;;10.29;40.41
30819;BME280;17546;42.674;23.284;2024-02-16T02:21:17;95253.72;;;10.30;40.08
30819;BME280;17546;42.674;23.284;2024-02-16T02:23:43;95276.88;;;10.47;40.09
30819;BME280;17546;42.674;23.284;2024-02-16T02:26:09;95283.59;;;10.61;39.87
30819;BME280;17546;42.674;23.284;2024-02-16T02:28:34;95281.28;;;10.60;39.77
30819;BME280;17546;42.674;23.284;2024-02-16T02:31:00;95286.84;;;10.60;39.70
30819;BME280;17546;42.674;23.284;2024-02-16T02:33:25;95261.88;;;10.39;40.06
30819;BME280;17546;42.674;23.284;2024-02-16T02:35:51;95285.03;;;10.57;39.81
30819;BME280;17546;42.674;23.284;2024-02-16T02:38:17;95261.56;;;10.52;39.75
30819;BME280;17546;42.674;23.284;2024-02-16T02:40:42;95263.81;;;10.33;39.74
30819;BME280;17546;42.674;23.284;2024-02-16T02:43:07;95258.66;;;10.41;39.82
30819;BME280;17546;42.674;23.284;2024-02-16T02:45:34;95289.81;;;10.56;39.84
30819;BME280;17546;42.674;23.284;2024-02-16T02:48:00;95261.13;;;10.39;39.95
30819;BME280;17546;42.674;23.284;2024-02-16T02:50:25;95278.81;;;10.62;39.46
30819;BME280;17546;42.674;23.284;2024-02-16T02:52:52;95280.81;;;10.61;39.88
30819;BME280;17546;42.674;23.284;2024-02-16T02:55:17;95251.94;;;10.47;39.45
30819;BME280;17546;42.674;23.284;2024-02-16T02:57:43;95279.91;;;10.49;39.86
30819;BME280;17546;42.674;23.284;2024-02-16T03:00:09;95276.91;;;10.53;39.82
30819;BME280;17546;42.674;23.284;2024-02-16T03:02:40;95285.47;;;10.70;39.27
30819;BME280;17546;42.674;23.284;2024-02-16T03:05:06;95272.75;;;10.43;39.66
30819;BME280;17546;42.674;23.284;2024-02-16T03:07:35;95271.56;;;10.29;39.97
30819;BME280;17546;42.674;23.284;2024-02-16T03:10:01;95260.28;;;10.18;40.31
30819;BME280;17546;42.674;23.284;2024-02-16T03:12:26;95279.38;;;10.30;40.29
30819;BME280;17546;42.674;23.284;2024-02-16T03:14:53;95268.59;;;10.18;40.09
30819;BME280;17546;42.674;23.284;2024-02-16T03:17:18;95283.88;;;10.28;40.22
30819;BME280;17546;42.674;23.284;2024-02-16T03:19:44;95265.19;;;10.08;40.38
30819;BME280;17546;42.674;23.284;2024-02-16T03:22:10;95281.69;;;10.32;40.05
30819;BME280;17546;42.674;23.284;2024-02-16T03:24:35;95273.28;;;10.11;40.50
30819;BME280;17546;42.674;23.284;2024-02-16T03:27:01;95239.28;;;9.90;40.41
30819;BME280;17546;42.674;23.284;2024-02-16T03:29:27;95272.34;;;10.14;40.47
30819;BME280;17546;42.674;23.284;2024-02-16T03:31:52;95276.06;;;10.11;40.47
30819;BME280;17546;42.674;23.284;2024-02-16T03:34:18;95287.28;;;10.23;40.37
30819;BME280;17546;42.674;23.284;2024-02-16T03:36:43;95255.00;;;9.99;40.31
30819;BME280;17546;42.674;23.284;2024-02-16T03:39:09;95284.25;;;10.21;40.14
30819;BME280;17546;42.674;23.284;2024-02-16T03:41:34;95299.72;;;10.27;40.08
30819;BME280;17546;42.674;23.284;2024-02-16T03:44:00;95292.63;;;10.26;39.95
30819;BME280;17546;42.674;23.284;2024-02-16T03:46:26;95284.25;;;10.21;39.93
30819;BME280;17546;42.674;23.284;2024-02-16T03:48:53;95266.94;;;10.05;39.83
30819;BME280;17546;42.674;23.284;2024-02-16T03:51:19;95273.97;;;10.06;40.08
30819;BME280;17546;42.674;23.284;2024-02-16T03:53:45;95286.75;;;10.19;40.05
30819;BME280;17546;42.674;23.284;2024-02-16T03:56:11;95268.66;;;9.88;40.51
30819;BME280;17546;42.674;23.284;2024-02-16T03:58:37;95260.50;;;9.64;40.82
30819;BME280;17546;42.674;23.284;2024-02-16T04:01:04;95255.88;;;9.76;40.54
30819;BME280;17546;42.674;23.284;2024-02-16T04:03:32;95274.94;;;10.03;40.10
30819;BME280;17546;42.674;23.284;2024-02-16T04:05:58;95276.97;;;9.88;40.73
30819;BME280;17546;42.674;23.284;2024-02-16T04:08:25;95266.97;;;9.76;40.71
30819;BME280;17546;42.674;23.284;2024-02-16T04:10:50;95259.81;;;9.54;41.17
30819;BME280;17546;42.674;23.284;2024-02-16T04:13:16;95280.03;;;9.60;41.33
30819;BME280;17546;42.674;23.284;2024-02-16T04:15:41;95264.00;;;9.64;40.96
30819;BME280;17546;42.674;23.284;2024-02-16T04:18:07;95263.72;;;9.62;41.08
30819;BME280;17546;42.674;23.284;2024-02-16T04:20:33;95266.97;;;9.61;41.43
30819;BME280;17546;42.674;23.284;2024-02-16T04:22:58;95276.28;;;9.63;41.31
30819;BME280;17546;42.674;23.284;2024-02-16T04:25:24;95245.78;;;9.43;41.47
30819;BME280;17546;42.674;23.284;2024-02-16T04:27:49;95265.84;;;9.52;41.23
30819;BME280;17546;42.674;23.284;2024-02-16T04:30:16;95270.88;;;9.54;41.38
30819;BME280;17546;42.674;23.284;2024-02-16T04:32:41;95264.69;;;9.59;41.24
30819;BME280;17546;42.674;23.284;2024-02-16T04:35:07;95270.41;;;9.56;41.07
30819;BME280;17546;42.674;23.284;2024-02-16T04:37:37;95261.22;;;9.35;41.49
30819;BME280;17546;42.674;23.284;2024-02-16T04:40:04;95284.31;;;9.46;41.75
30819;BME280;17546;42.674;23.284;2024-02-16T04:42:31;95283.16;;;9.38;41.73
30819;BME280;17546;42.674;23.284;2024-02-16T04:44:56;95286.91;;;9.35;41.52
30819;BME280;17546;42.674;23.284;2024-02-16T04:47:22;95270.69;;;9.43;41.15
30819;BME280;17546;42.674;23.284;2024-02-16T04:49:47;95262.28;;;9.22;41.62
30819;BME280;17546;42.674;23.284;2024-02-16T04:52:13;95287.28;;;9.43;41.62
30819;BME280;17546;42.674;23.284;2024-02-16T04:54:38;95270.38;;;9.26;41.75
30819;BME280;17546;42.674;23.284;2024-02-16T04:57:06;95289.00;;;9.55;41.50
30819;BME280;17546;42.674;23.284;2024-02-16T04:59:31;95285.94;;;9.53;40.94
30819;BME280;17546;42.674;23.284;2024-02-16T05:01:56;95278.59;;;9.50;41.26
30819;BME280;17546;42.674;23.284;2024-02-16T05:04:22;95292.72;;;9.52;41.33
30819;BME280;17546;42.674;23.284;2024-02-16T05:06:47;95297.38;;;9.90;40.59
30819;BME280;17546;42.674;23.284;2024-02-16T05:09:13;95294.03;;;10.01;40.32
30819;BME280;17546;42.674;23.284;2024-02-16T05:11:43;95282.78;;;9.90;40.24
30819;BME280;17546;42.674;23.284;2024-02-16T05:14:10;95279.63;;;9.67;40.32
30819;BME280;17546;42.674;23.284;2024-02-16T05:16:37;95287.09;;;9.61;40.59
30819;BME280;17546;42.674;23.284;2024-02-16T05:19:03;95294.63;;;9.76;40.31
30819;BME280;17546;42.674;23.284;2024-02-16T05:21:28;95295.66;;;9.63;40.46
30819;BME280;17546;42.674;23.284;2024-02-16T05:23:54;95288.72;;;9.68;40.40
30819;BME280;17546;42.674;23.284;2024-02-16T05:26:20;95315.59;;;9.82;40.60
30819;BME280;17546;42.674;23.284;2024-02-16T05:28:46;95299.97;;;9.64;40.67
30819;BME280;17546;42.674;23.284;2024-02-16T05:31:17;95314.28;;;9.78;40.90
30819;BME280;17546;42.674;23.284;2024-02-16T05:33:46;95324.38;;;9.81;40.42
30819;BME280;17546;42.674;23.284;2024-02-16T05:36:11;95314.06;;;9.37;41.42
30819;BME280;17546;42.674;23.284;2024-02-16T05:38:38;95310.25;;;9.49;40.98
30819;BME280;17546;42.674;23.284;2024-02-16T05:41:07;95315.91;;;9.84;40.54
30819;BME280;17546;42.674;23.284;2024-02-16T05:43:33;95338.69;;;9.94;40.54
30819;BME280;17546;42.674;23.284;2024-02-16T05:45:59;95339.66;;;9.91;40.48
30819;BME280;17546;42.674;23.284;2024-02-16T05:48:25;95339.47;;;9.95;40.35
30819;BME280;17546;42.674;23.284;2024-02-16T05:50:53;95306.25;;;9.65;40.44
30819;BME280;17546;42.674;23.284;2024-02-16T05:53:21;95341.75;;;9.66;40.62
30819;BME280;17546;42.674;23.284;2024-02-16T05:55:46;95339.09;;;9.57;41.13
30819;BME280;17546;42.674;23.284;2024-02-16T05:58:12;95337.56;;;9.71;40.46
30819;BME280;17546;42.674;23.284;2024-02-16T06:00:38;95311.03;;;9.64;40.86
30819;BME280;17546;42.674;23.284;2024-02-16T06:03:03;95322.59;;;9.78;40.40
30819;BME280;17546;42.674;23.284;2024-02-16T06:05:29;95352.06;;;9.96;40.68
30819;BME280;17546;42.674;23.284;2024-02-16T06:07:55;95344.72;;;9.92;40.64
30819;BME280;17546;42.674;23.284;2024-02-16T06:10:22;95322.50;;;9.57;41.12
30819;BME280;17546;42.674;23.284;2024-02-16T06:12:48;95337.56;;;9.86;40.62
30819;BME280;17546;42.674;23.284;2024-02-16T06:15:13;95321.72;;;9.71;40.95
30819;BME280;17546;42.674;23.284;2024-02-16T06:17:40;95318.09;;;9.80;40.70
30819;BME280;17546;42.674;23.284;2024-02-16T06:20:06;95343.94;;;10.07;40.53
30819;BME280;17546;42.674;23.284;2024-02-16T06:22:35;95316.47;;;9.73;40.60
30819;BME280;17546;42.674;23.284;2024-02-16T06:25:00;95346.88;;;10.18;40.42
30819;BME280;17546;42.674;23.284;2024-02-16T06:27:26;95330.78;;;9.87;40.43
30819;BME280;17546;42.674;23.284;2024-02-16T06:29:51;95339.44;;;10.09;40.56
30819;BME280;17546;42.674;23.284;2024-02-16T06:32:17;95337.53;;;10.01;40.88
30819;BME280;17546;42.674;23.284;2024-02-16T06:34:43;95342.03;;;10.13;40.46
30819;BME280;17546;42.674;23.284;2024-02-16T06:37:11;95347.19;;;10.05;40.56
30819;BME280;17546;42.674;23.284;2024-02-16T06:39:36;95309.09;;;10.00;40.58
30819;BME280;17546;42.674;23.284;2024-02-16T06:42:02;95354.25;;;10.21;40.49
30819;BME280;17546;42.674;23.284;2024-02-16T06:44:27;95328.94;;;10.13;40.91
30819;BME280;17546;42.674;23.284;2024-02-16T06:46:53;95341.81;;;10.31;40.51
30819;BME280;17546;42.674;23.284;2024-02-16T06:49:18;95335.78;;;10.48;40.54
30819;BME280;17546;42.674;23.284;2024-02-16T06:51:43;95339.59;;;10.50;40.34
30819;BME280;17546;42.674;23.284;2024-02-16T06:54:10;95343.78;;;10.61;40.37
30819;BME280;17546;42.674;23.284;2024-02-16T06:56:36;95353.63;;;10.82;39.79
30819;BME280;17546;42.674;23.284;2024-02-16T06:59:01;95338.88;;;10.70;39.75
30819;BME280;17546;42.674;23.284;2024-02-16T07:01:27;95331.97;;;10.45;39.92
30819;BME280;17546;42.674;23.284;2024-02-16T07:03:53;95346.56;;;10.61;39.59
30819;BME280;17546;42.674;23.284;2024-02-16T07:06:18;95356.03;;;10.54;39.82
30819;BME280;17546;42.674;23.284;2024-02-16T07:08:44;95359.88;;;10.77;39.49
30819;BME280;17546;42.674;23.284;2024-02-16T07:11:10;95362.91;;;10.79;39.11
30819;BME280;17546;42.674;23.284;2024-02-16T07:13:40;95326.44;;;10.45;39.19
30819;BME280;17546;42.674;23.284;2024-02-16T07:16:06;95330.38;;;10.74;38.27
30819;BME280;17546;42.674;23.284;2024-02-16T07:18:32;95355.44;;;11.06;38.42
30819;BME280;17546;42.674;23.284;2024-02-16T07:20:58;95331.75;;;10.84;38.17
30819;BME280;17546;42.674;23.284;2024-02-16T07:23:25;95338.16;;;10.75;38.43
30819;BME280;17546;42.674;23.284;2024-02-16T07:25:51;95340.34;;;10.51;38.95
30819;BME280;17546;42.674;23.284;2024-02-16T07:28:16;95326.63;;;10.77;38.34
30819;BME280;17546;42.674;23.284;2024-02-16T07:30:42;95322.47;;;11.08;37.43
30819;BME280;17546;42.674;23.284;2024-02-16T07:33:08;95319.28;;;10.94;38.17
30819;BME280;17546;42.674;23.284;2024-02-16T07:35:35;95349.78;;;10.94;38.25
30819;BME280;17546;42.674;23.284;2024-02-16T07:38:04;95345.84;;;10.66;38.56
30819;BME280;17546;42.674;23.284;2024-02-16T07:40:30;95326.75;;;11.09;37.88
30819;BME280;17546;42.674;23.284;2024-02-16T07:42:56;95313.78;;;11.21;37.36
30819;BME280;17546;42.674;23.284;2024-02-16T07:45:22;95346.72;;;11.33;37.59
30819;BME280;17546;42.674;23.284;2024-02-16T07:47:48;95356.19;;;11.47;37.59
30819;BME280;17546;42.674;23.284;2024-02-16T07:50:13;95339.88;;;11.55;37.44
30819;BME280;17546;42.674;23.284;2024-02-16T07:52:39;95339.66;;;11.58;37.26
30819;BME280;17546;42.674;23.284;2024-02-16T07:55:08;95349.47;;;11.54;37.26
30819;BME280;17546;42.674;23.284;2024-02-16T07:57:34;95355.66;;;11.69;37.35
30819;BME280;17546;42.674;23.284;2024-02-16T07:59:59;95349.03;;;11.87;36.90
30819;BME280;17546;42.674;23.284;2024-02-16T08:02:25;95346.34;;;11.93;36.90
30819;BME280;17546;42.674;23.284;2024-02-16T08:04:50;95332.19;;;11.91;36.80
30819;BME280;17546;42.674;23.284;2024-02-16T08:07:16;95321.88;;;11.71;36.85
30819;BME280;17546;42.674;23.284;2024-02-16T08:09:46;95363.81;;;11.78;36.98
30819;BME280;17546;42.674;23.284;2024-02-16T08:12:12;95339.34;;;11.51;37.15
30819;BME280;17546;42.674;23.284;2024-02-16T08:14:41;95361.78;;;11.73;37.20
30819;BME280;17546;42.674;23.284;2024-02-16T08:17:07;95333.53;;;11.49;37.38
30819;BME280;17546;42.674;23.284;2024-02-16T08:19:34;95360.44;;;11.43;38.72
30819;BME280;17546;42.674;23.284;2024-02-16T08:22:01;95334.69;;;11.68;37.77
30819;BME280;17546;42.674;23.284;2024-02-16T08:24:27;95341.06;;;11.74;37.69
30819;BME280;17546;42.674;23.284;2024-02-16T08:26:52;95356.13;;;11.88;37.75
30819;BME280;17546;42.674;23.284;2024-02-16T08:29:18;95353.28;;;11.83;37.62
30819;BME280;17546;42.674;23.284;2024-02-16T08:31:43;95346.72;;;11.86;37.88
30819;BME280;17546;42.674;23.284;2024-02-16T08:34:09;95353.34;;;11.88;37.62
30819;BME280;17546;42.674;23.284;2024-02-16T08:36:36;95349.56;;;11.65;37.68
30819;BME280;17546;42.674;23.284;2024-02-16T08:39:01;95357.59;;;12.10;37.46
30819;BME280;17546;42.674;23.284;2024-02-16T08:41:27;95324.25;;;11.84;37.29
30819;BME280;17546;42.674;23.284;2024-02-16T08:43:52;95327.81;;;11.58;37.71
30819;BME280;17546;42.674;23.284;2024-02-16T08:46:18;95311.06;;;11.47;37.90
30819;BME280;17546;42.674;23.284;2024-02-16T08:48:47;95336.44;;;11.40;38.52
30819;BME280;17546;42.674;23.284;2024-02-16T08:51:12;95360.75;;;11.97;37.70
30819;BME280;17546;42.674;23.284;2024-02-16T08:53:39;95363.28;;;11.74;37.86
30819;BME280;17546;42.674;23.284;2024-02-16T08:56:09;95370.97;;;11.38;38.28
30819;BME280;17546;42.674;23.284;2024-02-16T08:58:37;95352.53;;;11.62;37.79
30819;BME280;17546;42.674;23.284;2024-02-16T09:01:04;95362.75;;;12.23;36.81
30819;BME280;17546;42.674;23.284;2024-02-16T09:03:29;95353.59;;;12.16;36.88
30819;BME280;17546;42.674;23.284;2024-02-16T09:06:00;95343.38;;;12.02;37.01
30819;BME280;17546;42.674;23.284;2024-02-16T09:08:26;95363.19;;;12.47;36.65
30819;BME280;17546;42.674;23.284;2024-02-16T09:10:54;95363.53;;;12.60;36.46
30819;BME280;17546;42.674;23.284;2024-02-16T09:13:19;95369.53;;;11.69;37.61
30819;BME280;17546;42.674;23.284;2024-02-16T09:15:45;95352.19;;;12.01;37.28
30819;BME280;17546;42.674;23.284;2024-02-16T09:18:10;95325.63;;;12.26;36.48
30819;BME280;17546;42.674;23.284;2024-02-16T09:20:36;95366.88;;;11.81;37.15
30819;BME280;17546;42.674;23.284;2024-02-16T09:23:01;95366.91;;;12.07;36.51
30819;BME280;17546;42.674;23.284;2024-02-16T09:25:27;95364.97;;;12.50;35.71
30819;BME280;17546;42.674;23.284;2024-02-16T09:27:52;95331.59;;;12.45;35.74
30819;BME280;17546;42.674;23.284;2024-02-16T09:30:18;95355.63;;;12.16;36.24
30819;BME280;17546;42.674;23.284;2024-02-16T09:32:43;95370.34;;;12.59;35.91
30819;BME280;17546;42.674;23.284;2024-02-16T09:35:10;95367.50;;;12.48;36.02
30819;BME280;17546;42.674;23.284;2024-02-16T09:37:39;95343.47;;;12.13;36.38
30819;BME280;17546;42.674;23.284;2024-02-16T09:40:05;95363.75;;;12.94;36.12
30819;BME280;17546;42.674;23.284;2024-02-16T09:42:32;95356.69;;;13.05;35.50
30819;BME280;17546;42.674;23.284;2024-02-16T09:45:04;95359.38;;;13.31;35.22
30819;BME280;17546;42.674;23.284;2024-02-16T09:47:30;95345.84;;;13.07;35.58
30819;BME280;17546;42.674;23.284;2024-02-16T09:49:58;95360.06;;;13.20;35.14
30819;BME280;17546;42.674;23.284;2024-02-16T09:52:24;95338.03;;;13.88;33.98
30819;BME280;17546;42.674;23.284;2024-02-16T09:54:49;95355.78;;;14.18;34.01
30819;BME280;17546;42.674;23.284;2024-02-16T09:57:18;95357.56;;;14.66;33.62
30819;BME280;17546;42.674;23.284;2024-02-16T09:59:44;95337.53;;;14.68;32.90
30819;BME280;17546;42.674;23.284;2024-02-16T10:02:10;95336.38;;;15.22;32.38
30819;BME280;17546;42.674;23.284;2024-02-16T10:04:36;95354.66;;;15.12;32.64
30819;BME280;17546;42.674;23.284;2024-02-16T10:07:02;95316.19;;;15.52;32.77
30819;BME280;17546;42.674;23.284;2024-02-16T10:09:28;95344.25;;;15.70;31.65
30819;BME280;17546;42.674;23.284;2024-02-16T10:12:00;95323.34;;;15.88;31.41
30819;BME280;17546;42.674;23.284;2024-02-16T10:14:26;95338.88;;;16.20;30.90
30819;BME280;17546;42.674;23.284;2024-02-16T10:17:02;95331.97;;;16.87;30.28
30819;BME280;17546;42.674;23.284;2024-02-16T10:19:28;95333.47;;;16.88;30.46
30819;BME280;17546;42.674;23.284;2024-02-16T10:22:06;95322.91;;;17.00;30.01
30819;BME280;17546;42.674;23.284;2024-02-16T10:24:32;95305.47;;;16.63;29.61
30819;BME280;17546;42.674;23.284;2024-02-16T10:26:58;95288.31;;;16.48;29.95
30819;BME280;17546;42.674;23.284;2024-02-16T10:29:24;95322.81;;;17.11;29.66
30819;BME280;17546;42.674;23.284;2024-02-16T10:31:52;95303.91;;;17.36;29.14
30819;BME280;17546;42.674;23.284;2024-02-16T10:34:19;95303.84;;;17.61;29.80
30819;BME280;17546;42.674;23.284;2024-02-16T10:36:46;95325.06;;;17.12;29.33
30819;BME280;17546;42.674;23.284;2024-02-16T10:39:12;95299.78;;;16.99;29.16
30819;BME280;17546;42.674;23.284;2024-02-16T10:41:40;95297.66;;;17.49;29.06
30819;BME280;17546;42.674;23.284;2024-02-16T10:44:07;95307.72;;;17.58;28.55
30819;BME280;17546;42.674;23.284;2024-02-16T10:46:33;95308.47;;;17.77;28.89
30819;BME280;17546;42.674;23.284;2024-02-16T10:48:59;95297.09;;;17.50;29.28
30819;BME280;17546;42.674;23.284;2024-02-16T10:54:30;95282.72;;;17.98;28.23
30819;BME280;17546;42.674;23.284;2024-02-16T10:56:57;95299.69;;;18.51;28.53
30819;BME280;17546;42.674;23.284;2024-02-16T10:59:23;95299.28;;;18.73;27.69
30819;BME280;17546;42.674;23.284;2024-02-16T11:02:01;95276.88;;;17.95;27.92
30819;BME280;17546;42.674;23.284;2024-02-16T11:04:37;95266.66;;;18.44;28.06
30819;BME280;17546;42.674;23.284;2024-02-16T11:07:13;95267.59;;;17.49;28.64
30819;BME280;17546;42.674;23.284;2024-02-16T11:09:40;95291.53;;;17.88;28.90
30819;BME280;17546;42.674;23.284;2024-02-16T11:12:07;95266.81;;;18.06;28.35
30819;BME280;17546;42.674;23.284;2024-02-16T11:14:41;95265.31;;;18.18;28.78
30819;BME280;17546;42.674;23.284;2024-02-16T11:19:35;95259.94;;;18.33;28.76
30819;BME280;17546;42.674;23.284;2024-02-16T11:22:05;95282.88;;;18.64;28.84
30819;BME280;17546;42.674;23.284;2024-02-16T11:24:44;95274.84;;;18.28;28.58
30819;BME280;17546;42.674;23.284;2024-02-16T11:27:11;95274.84;;;17.39;29.42
30819;BME280;17546;42.674;23.284;2024-02-16T11:29:38;95263.63;;;17.01;30.04
30819;BME280;17546;42.674;23.284;2024-02-16T11:32:05;95249.72;;;17.52;29.51
30819;BME280;17546;42.674;23.284;2024-02-16T11:34:31;95256.53;;;17.38;29.53
30819;BME280;17546;42.674;23.284;2024-02-16T11:36:58;95265.91;;;17.03;30.17
30819;BME280;17546;42.674;23.284;2024-02-16T11:39:24;95262.66;;;17.37;29.25
30819;BME280;17546;42.674;23.284;2024-02-16T11:42:04;95264.19;;;17.56;29.60
30819;BME280;17546;42.674;23.284;2024-02-16T11:44:31;95258.28;;;18.11;28.45
30819;BME280;17546;42.674;23.284;2024-02-16T11:46:58;95228.56;;;18.22;28.44
30819;BME280;17546;42.674;23.284;2024-02-16T11:49:23;95247.88;;;18.38;28.20
30819;BME280;17546;42.674;23.284;2024-02-16T11:51:49;95249.25;;;18.32;28.36
30819;BME280;17546;42.674;23.284;2024-02-16T11:54:15;95244.94;;;18.17;28.74
30819;BME280;17546;42.674;23.284;2024-02-16T11:56:45;95233.38;;;17.56;29.46
30819;BME280;17546;42.674;23.284;2024-02-16T11:59:14;95241.00;;;16.74;30.07
30819;BME280;17546;42.674;23.284;2024-02-16T12:04:26;95235.31;;;16.86;30.03
30819;BME280;17546;42.674;23.284;2024-02-16T12:07:01;95230.44;;;17.49;29.50
30819;BME280;17546;42.674;23.284;2024-02-16T12:09:28;95237.47;;;18.07;28.61
30819;BME280;17546;42.674;23.284;2024-02-16T12:11:54;95232.56;;;17.94;29.34
30819;BME280;17546;42.674;23.284;2024-02-16T12:14:23;95245.59;;;17.91;29.05
30819;BME280;17546;42.674;23.284;2024-02-16T12:16:50;95238.19;;;17.75;29.07
30819;BME280;17546;42.674;23.284;2024-02-16T12:19:18;95231.00;;;18.12;28.54
30819;BME280;17546;42.674;23.284;2024-02-16T12:21:44;95219.28;;;18.27;28.60
30819;BME280;17546;42.674;23.284;2024-02-16T12:24:10;95209.53;;;17.50;28.99
30819;BME280;17546;42.674;23.284;2024-02-16T12:26:36;95222.66;;;17.74;29.19
30819;BME280;17546;42.674;23.284;2024-02-16T12:29:01;95209.75;;;17.52;29.32
30819;BME280;17546;42.674;23.284;2024-02-16T12:31:27;95193.06;;;17.27;29.18
30819;BME280;17546;42.674;23.284;2024-02-16T12:33:53;95208.25;;;17.13;29.56
30819;BME280;17546;42.674;23.284;2024-02-16T12:36:18;95203.50;;;17.08;29.55
30819;BME280;17546;42.674;23.284;2024-02-16T12:38:44;95195.66;;;15.83;31.13
30819;BME280;17546;42.674;23.284;2024-02-16T12:41:10;95225.50;;;16.49;30.48
30819;BME280;17546;42.674;23.284;2024-02-16T12:43:35;95192.84;;;16.63;30.15
30819;BME280;17546;42.674;23.284;2024-02-16T12:46:01;95212.69;;;16.84;30.24
30819;BME280;17546;42.674;23.284;2024-02-16T12:48:29;95206.16;;;17.38;29.51
30819;BME280;17546;42.674;23.284;2024-02-16T12:50:55;95187.50;;;17.60;28.98
30819;BME280;17546;42.674;23.284;2024-02-16T12:53:20;95214.25;;;17.74;28.83
30819;BME280;17546;42.674;23.284;2024-02-16T12:55:49;95189.56;;;17.72;28.57